<?xml version="1.0" encoding="UTF-8" standalone="no" ?>
<gpx xmlns="http://www.topografix.com/GPX/1/1" xmlns:xsi="http://www.w3.org/2001/XMLSchema-instance" xsi:schemaLocation="http://www.topografix.com/GPX/1/1 http://www.topografix.com/GPX/1/1/gpx.xsd" version="1.1" creator="VisuGPX - https://www.visugpx.com">
  <metadata>
    <name>Massif du Hautil</name>
  </metadata>
  <trk>
    <name><![CDATA[7555508-Massif du Hautil]]></name>
    <trkseg>
      <trkpt lat="48.99815" lon="2.01148">
        <ele>175</ele>
        <time>2021-03-29T12:25:04Z</time>
      </trkpt>
      <trkpt lat="48.99893" lon="2.0103">
        <ele>177</ele>
        <time>2021-03-29T12:27:31Z</time>
      </trkpt>
      <trkpt lat="48.99962" lon="2.00848">
        <ele>178</ele>
        <time>2021-03-29T12:30:35Z</time>
      </trkpt>
      <trkpt lat="49.00122" lon="2.00831">
        <ele>182</ele>
        <time>2021-03-29T12:34:09Z</time>
      </trkpt>
      <trkpt lat="49.00241" lon="2.00809">
        <ele>184</ele>
        <time>2021-03-29T12:36:49Z</time>
      </trkpt>
      <trkpt lat="49.00284" lon="2.00818">
        <ele>184</ele>
        <time>2021-03-29T12:37:47Z</time>
      </trkpt>
      <trkpt lat="49.00412" lon="2.00781">
        <ele>185</ele>
        <time>2021-03-29T12:40:40Z</time>
      </trkpt>
      <trkpt lat="49.00498" lon="2.00848">
        <ele>181</ele>
        <time>2021-03-29T12:42:49Z</time>
      </trkpt>
      <trkpt lat="49.00569" lon="2.00893">
        <ele>178</ele>
        <time>2021-03-29T12:44:32Z</time>
      </trkpt>
      <trkpt lat="49.00639" lon="2.00972">
        <ele>175</ele>
        <time>2021-03-29T12:46:28Z</time>
      </trkpt>
      <trkpt lat="49.00677" lon="2.01402">
        <ele>128</ele>
        <time>2021-03-29T12:52:48Z</time>
      </trkpt>
      <trkpt lat="49.00714" lon="2.0145">
        <ele>125</ele>
        <time>2021-03-29T12:53:53Z</time>
      </trkpt>
      <trkpt lat="49.00703" lon="2.01477">
        <ele>124</ele>
        <time>2021-03-29T12:54:21Z</time>
      </trkpt>
      <trkpt lat="49.00706" lon="2.01482">
        <ele>123</ele>
        <time>2021-03-29T12:54:27Z</time>
      </trkpt>
      <trkpt lat="49.00677" lon="2.01506">
        <ele>123</ele>
        <time>2021-03-29T12:55:11Z</time>
      </trkpt>
      <trkpt lat="49.00651" lon="2.01431">
        <ele>128</ele>
        <time>2021-03-29T12:56:25Z</time>
      </trkpt>
      <trkpt lat="49.00607" lon="2.01454">
        <ele>130</ele>
        <time>2021-03-29T12:57:27Z</time>
      </trkpt>
      <trkpt lat="49.00592" lon="2.01474">
        <ele>129</ele>
        <time>2021-03-29T12:57:54Z</time>
      </trkpt>
      <trkpt lat="49.00599" lon="2.01502">
        <ele>126</ele>
        <time>2021-03-29T12:58:20Z</time>
      </trkpt>
      <trkpt lat="49.00616" lon="2.01587">
        <ele>123</ele>
        <time>2021-03-29T12:59:38Z</time>
      </trkpt>
      <trkpt lat="49.00656" lon="2.01755">
        <ele>115</ele>
        <time>2021-03-29T13:02:14Z</time>
      </trkpt>
      <trkpt lat="49.00627" lon="2.01769">
        <ele>115</ele>
        <time>2021-03-29T13:02:55Z</time>
      </trkpt>
      <trkpt lat="49.00544" lon="2.01834">
        <ele>116</ele>
        <time>2021-03-29T13:04:59Z</time>
      </trkpt>
      <trkpt lat="49.00467" lon="2.01934">
        <ele>118</ele>
        <time>2021-03-29T13:07:14Z</time>
      </trkpt>
      <trkpt lat="49.00423" lon="2.01996">
        <ele>121</ele>
        <time>2021-03-29T13:08:34Z</time>
      </trkpt>
      <trkpt lat="49.00319" lon="2.02167">
        <ele>128</ele>
        <time>2021-03-29T13:11:58Z</time>
      </trkpt>
      <trkpt lat="49.00228" lon="2.02283">
        <ele>131</ele>
        <time>2021-03-29T13:14:36Z</time>
      </trkpt>
      <trkpt lat="49.0021" lon="2.02316">
        <ele>129</ele>
        <time>2021-03-29T13:15:14Z</time>
      </trkpt>
      <trkpt lat="49.00212" lon="2.02361">
        <ele>125</ele>
        <time>2021-03-29T13:15:54Z</time>
      </trkpt>
      <trkpt lat="49.00183" lon="2.02391">
        <ele>125</ele>
        <time>2021-03-29T13:16:40Z</time>
      </trkpt>
      <trkpt lat="49.00163" lon="2.02404">
        <ele>126</ele>
        <time>2021-03-29T13:17:09Z</time>
      </trkpt>
      <trkpt lat="49.0015" lon="2.02455">
        <ele>122</ele>
        <time>2021-03-29T13:17:57Z</time>
      </trkpt>
      <trkpt lat="49.00187" lon="2.02554">
        <ele>112</ele>
        <time>2021-03-29T13:19:37Z</time>
      </trkpt>
      <trkpt lat="49.00329" lon="2.0267">
        <ele>104</ele>
        <time>2021-03-29T13:23:12Z</time>
      </trkpt>
      <trkpt lat="49.0039" lon="2.02837">
        <ele>97</ele>
        <time>2021-03-29T13:25:59Z</time>
      </trkpt>
      <trkpt lat="49.00305" lon="2.02908">
        <ele>95</ele>
        <time>2021-03-29T13:28:09Z</time>
      </trkpt>
      <trkpt lat="49.0017" lon="2.03067">
        <ele>103</ele>
        <time>2021-03-29T13:31:56Z</time>
      </trkpt>
      <trkpt lat="49.00172" lon="2.03655">
        <ele>89</ele>
        <time>2021-03-29T13:40:31Z</time>
      </trkpt>
      <trkpt lat="49.00141" lon="2.03916">
        <ele>85</ele>
        <time>2021-03-29T13:44:23Z</time>
      </trkpt>
      <trkpt lat="49.00136" lon="2.04152">
        <ele>80</ele>
        <time>2021-03-29T13:47:50Z</time>
      </trkpt>
      <trkpt lat="49.00065" lon="2.04273">
        <ele>80</ele>
        <time>2021-03-29T13:50:12Z</time>
      </trkpt>
      <trkpt lat="48.99945" lon="2.04292">
        <ele>85</ele>
        <time>2021-03-29T13:52:53Z</time>
      </trkpt>
      <trkpt lat="48.99886" lon="2.0432">
        <ele>88</ele>
        <time>2021-03-29T13:54:16Z</time>
      </trkpt>
      <trkpt lat="48.99686" lon="2.04388">
        <ele>87</ele>
        <time>2021-03-29T13:58:49Z</time>
      </trkpt>
      <trkpt lat="48.99663" lon="2.04507">
        <ele>85</ele>
        <time>2021-03-29T14:00:38Z</time>
      </trkpt>
      <trkpt lat="48.99539" lon="2.04524">
        <ele>75</ele>
        <time>2021-03-29T14:03:24Z</time>
      </trkpt>
      <trkpt lat="48.99497" lon="2.04476">
        <ele>71</ele>
        <time>2021-03-29T14:04:34Z</time>
      </trkpt>
      <trkpt lat="48.99456" lon="2.04481">
        <ele>71</ele>
        <time>2021-03-29T14:05:29Z</time>
      </trkpt>
      <trkpt lat="48.99349" lon="2.04541">
        <ele>78</ele>
        <time>2021-03-29T14:08:01Z</time>
      </trkpt>
      <trkpt lat="48.99317" lon="2.04577">
        <ele>83</ele>
        <time>2021-03-29T14:08:54Z</time>
      </trkpt>
      <trkpt lat="48.99049" lon="2.04642">
        <ele>97</ele>
        <time>2021-03-29T14:14:56Z</time>
      </trkpt>
      <trkpt lat="48.99049" lon="2.04706">
        <ele>97</ele>
        <time>2021-03-29T14:15:52Z</time>
      </trkpt>
      <trkpt lat="48.98803" lon="2.04837">
        <ele>104</ele>
        <time>2021-03-29T14:21:40Z</time>
      </trkpt>
      <trkpt lat="48.98772" lon="2.04878">
        <ele>103</ele>
        <time>2021-03-29T14:22:35Z</time>
      </trkpt>
      <trkpt lat="48.98624" lon="2.05101">
        <ele>94</ele>
        <time>2021-03-29T14:27:12Z</time>
      </trkpt>
      <trkpt lat="48.98536" lon="2.052">
        <ele>94</ele>
        <time>2021-03-29T14:29:38Z</time>
      </trkpt>
      <trkpt lat="48.98521" lon="2.04957">
        <ele>104</ele>
        <time>2021-03-29T14:33:12Z</time>
      </trkpt>
      <trkpt lat="48.98434" lon="2.04991">
        <ele>111</ele>
        <time>2021-03-29T14:35:12Z</time>
      </trkpt>
      <trkpt lat="48.98386" lon="2.04994">
        <ele>113</ele>
        <time>2021-03-29T14:36:16Z</time>
      </trkpt>
      <trkpt lat="48.98265" lon="2.04959">
        <ele>113</ele>
        <time>2021-03-29T14:39:00Z</time>
      </trkpt>
      <trkpt lat="48.98269" lon="2.04929">
        <ele>114</ele>
        <time>2021-03-29T14:39:27Z</time>
      </trkpt>
      <trkpt lat="48.98288" lon="2.04895">
        <ele>117</ele>
        <time>2021-03-29T14:40:06Z</time>
      </trkpt>
      <trkpt lat="48.98312" lon="2.04758">
        <ele>126</ele>
        <time>2021-03-29T14:42:11Z</time>
      </trkpt>
      <trkpt lat="48.98345" lon="2.04616">
        <ele>140</ele>
        <time>2021-03-29T14:44:22Z</time>
      </trkpt>
      <trkpt lat="48.98388" lon="2.0447">
        <ele>152</ele>
        <time>2021-03-29T14:46:43Z</time>
      </trkpt>
      <trkpt lat="48.9844" lon="2.04337">
        <ele>160</ele>
        <time>2021-03-29T14:48:58Z</time>
      </trkpt>
      <trkpt lat="48.98434" lon="2.04167">
        <ele>163</ele>
        <time>2021-03-29T14:51:27Z</time>
      </trkpt>
      <trkpt lat="48.98436" lon="2.03972">
        <ele>167</ele>
        <time>2021-03-29T14:54:18Z</time>
      </trkpt>
      <trkpt lat="48.98424" lon="2.03805">
        <ele>170</ele>
        <time>2021-03-29T14:56:45Z</time>
      </trkpt>
      <trkpt lat="48.98414" lon="2.03592">
        <ele>171</ele>
        <time>2021-03-29T14:59:52Z</time>
      </trkpt>
      <trkpt lat="48.98402" lon="2.03423">
        <ele>169</ele>
        <time>2021-03-29T15:02:21Z</time>
      </trkpt>
      <trkpt lat="48.98457" lon="2.03423">
        <ele>172</ele>
        <time>2021-03-29T15:03:35Z</time>
      </trkpt>
      <trkpt lat="48.9844" lon="2.03159">
        <ele>172</ele>
        <time>2021-03-29T15:07:27Z</time>
      </trkpt>
      <trkpt lat="48.98428" lon="2.02932">
        <ele>172</ele>
        <time>2021-03-29T15:10:46Z</time>
      </trkpt>
      <trkpt lat="48.98447" lon="2.0268">
        <ele>170</ele>
        <time>2021-03-29T15:14:28Z</time>
      </trkpt>
      <trkpt lat="48.98469" lon="2.02642">
        <ele>171</ele>
        <time>2021-03-29T15:15:13Z</time>
      </trkpt>
      <trkpt lat="48.98448" lon="2.0256">
        <ele>170</ele>
        <time>2021-03-29T15:16:30Z</time>
      </trkpt>
      <trkpt lat="48.98421" lon="2.02498">
        <ele>171</ele>
        <time>2021-03-29T15:17:35Z</time>
      </trkpt>
      <trkpt lat="48.98434" lon="2.02447">
        <ele>171</ele>
        <time>2021-03-29T15:18:23Z</time>
      </trkpt>
      <trkpt lat="48.98386" lon="2.02348">
        <ele>169</ele>
        <time>2021-03-29T15:20:11Z</time>
      </trkpt>
      <trkpt lat="48.98362" lon="2.02249">
        <ele>168</ele>
        <time>2021-03-29T15:21:43Z</time>
      </trkpt>
      <trkpt lat="48.98392" lon="2.02129">
        <ele>164</ele>
        <time>2021-03-29T15:23:36Z</time>
      </trkpt>
      <trkpt lat="48.98462" lon="2.01955">
        <ele>164</ele>
        <time>2021-03-29T15:26:34Z</time>
      </trkpt>
      <trkpt lat="48.98486" lon="2.0188">
        <ele>164</ele>
        <time>2021-03-29T15:27:47Z</time>
      </trkpt>
      <trkpt lat="48.98536" lon="2.01884">
        <ele>168</ele>
        <time>2021-03-29T15:28:54Z</time>
      </trkpt>
      <trkpt lat="48.98533" lon="2.01859">
        <ele>168</ele>
        <time>2021-03-29T15:29:17Z</time>
      </trkpt>
      <trkpt lat="48.985" lon="2.01683">
        <ele>164</ele>
        <time>2021-03-29T15:31:57Z</time>
      </trkpt>
      <trkpt lat="48.98571" lon="2.01644">
        <ele>166</ele>
        <time>2021-03-29T15:33:38Z</time>
      </trkpt>
      <trkpt lat="48.98759" lon="2.01717">
        <ele>171</ele>
        <time>2021-03-29T15:37:56Z</time>
      </trkpt>
      <trkpt lat="48.9881" lon="2.01715">
        <ele>172</ele>
        <time>2021-03-29T15:39:05Z</time>
      </trkpt>
      <trkpt lat="48.99062" lon="2.01749">
        <ele>175</ele>
        <time>2021-03-29T15:44:42Z</time>
      </trkpt>
      <trkpt lat="48.99187" lon="2.01801">
        <ele>178</ele>
        <time>2021-03-29T15:47:35Z</time>
      </trkpt>
      <trkpt lat="48.99342" lon="2.01846">
        <ele>174</ele>
        <time>2021-03-29T15:51:06Z</time>
      </trkpt>
      <trkpt lat="48.99427" lon="2.01865">
        <ele>173</ele>
        <time>2021-03-29T15:53:00Z</time>
      </trkpt>
      <trkpt lat="48.99545" lon="2.01872">
        <ele>175</ele>
        <time>2021-03-29T15:55:38Z</time>
      </trkpt>
      <trkpt lat="48.99528" lon="2.01674">
        <ele>178</ele>
        <time>2021-03-29T15:58:33Z</time>
      </trkpt>
      <trkpt lat="48.99767" lon="2.01247">
        <ele>173</ele>
        <time>2021-03-29T16:06:44Z</time>
      </trkpt>
      <trkpt lat="48.99815" lon="2.01148">
        <ele>175</ele>
        <time>2021-03-29T16:08:32Z</time>
      </trkpt>
    </trkseg>
  </trk>
</gpx>